sensor_id;sensor_type;location;lat;lon;timestamp;temperature;humidity
4596;DHT22;2310;49.978;8.742;2023-05-10T00:03:50;15.60;99.90
4596;DHT22;2310;49.978;8.742;2023-05-10T00:07:52;15.60;99.90
4596;DHT22;2310;49.978;8.742;2023-05-10T00:11:54;15.50;99.90
4596;DHT22;2310;49.978;8.742;2023-05-10T00:15:56;15.30;99.90
4596;DHT22;2310;49.978;8.742;2023-05-10T00:19:58;15.40;99.90
4596;DHT22;2310;49.978;8.742;2023-05-10T00:24:00;15.40;99.90
4596;DHT22;2310;49.978;8.742;2023-05-10T00:28:01;15.40;99.90
4596;DHT22;2310;49.978;8.742;2023-05-10T00:32:03;15.20;99.90
4596;DHT22;2310;49.978;8.742;2023-05-10T00:36:06;15.30;99.90
4596;DHT22;2310;49.978;8.742;2023-05-10T00:40:09;15.40;99.90
4596;DHT22;2310;49.978;8.742;2023-05-10T00:44:10;15.40;99.90
4596;DHT22;2310;49.978;8.742;2023-05-10T00:48:12;15.60;99.90
4596;DHT22;2310;49.978;8.742;2023-05-10T00:52:13;15.50;99.90
4596;DHT22;2310;49.978;8.742;2023-05-10T00:56:15;15.50;99.90
4596;DHT22;2310;49.978;8.742;2023-05-10T01:00:18;15.30;99.90
4596;DHT22;2310;49.978;8.742;2023-05-10T01:04:20;15.20;99.90
4596;DHT22;2310;49.978;8.742;2023-05-10T01:08:23;15.00;99.90
4596;DHT22;2310;49.978;8.742;2023-05-10T01:12:25;15.10;99.90
4596;DHT22;2310;49.978;8.742;2023-05-10T01:16:27;15.20;99.90
4596;DHT22;2310;49.978;8.742;2023-05-10T01:20:35;14.90;99.90
4596;DHT22;2310;49.978;8.742;2023-05-10T01:29:22;15.00;99.90
4596;DHT22;2310;49.978;8.742;2023-05-10T01:33:29;15.10;99.90
4596;DHT22;2310;49.978;8.742;2023-05-10T01:37:50;15.20;99.90
4596;DHT22;2310;49.978;8.742;2023-05-10T01:46:16;15.30;99.90
4596;DHT22;2310;49.978;8.742;2023-05-10T01:50:21;15.20;99.90
4596;DHT22;2310;49.978;8.742;2023-05-10T01:54:23;14.90;99.90
4596;DHT22;2310;49.978;8.742;2023-05-10T01:58:29;15.10;99.90
4596;DHT22;2310;49.978;8.742;2023-05-10T02:02:33;14.90;99.90
4596;DHT22;2310;49.978;8.742;2023-05-10T02:06:35;15.00;99.90
4596;DHT22;2310;49.978;8.742;2023-05-10T02:10:37;15.30;99.90
4596;DHT22;2310;49.978;8.742;2023-05-10T02:14:41;15.20;99.90
4596;DHT22;2310;49.978;8.742;2023-05-10T02:18:43;15.00;99.90
4596;DHT22;2310;49.978;8.742;2023-05-10T02:22:48;15.10;99.90
4596;DHT22;2310;49.978;8.742;2023-05-10T02:26:51;15.10;99.90
4596;DHT22;2310;49.978;8.742;2023-05-10T02:30:54;15.10;99.90
4596;DHT22;2310;49.978;8.742;2023-05-10T02:34:57;15.10;99.90
4596;DHT22;2310;49.978;8.742;2023-05-10T02:38:59;15.10;99.90
4596;DHT22;2310;49.978;8.742;2023-05-10T02:43:04;15.20;99.90
4596;DHT22;2310;49.978;8.742;2023-05-10T02:47:06;15.00;99.90
4596;DHT22;2310;49.978;8.742;2023-05-10T02:51:08;15.10;99.90
4596;DHT22;2310;49.978;8.742;2023-05-10T02:55:12;15.20;99.90
4596;DHT22;2310;49.978;8.742;2023-05-10T02:59:16;15.10;99.90
4596;DHT22;2310;49.978;8.742;2023-05-10T03:03:17;15.10;99.90
4596;DHT22;2310;49.978;8.742;2023-05-10T03:07:18;15.20;99.90
4596;DHT22;2310;49.978;8.742;2023-05-10T03:16:12;15.10;99.90
4596;DHT22;2310;49.978;8.742;2023-05-10T03:20:21;15.10;99.90
4596;DHT22;2310;49.978;8.742;2023-05-10T03:24:23;14.90;99.90
4596;DHT22;2310;49.978;8.742;2023-05-10T03:28:26;15.00;99.90
4596;DHT22;2310;49.978;8.742;2023-05-10T03:32:29;15.10;99.90
4596;DHT22;2310;49.978;8.742;2023-05-10T03:36:32;15.10;99.90
4596;DHT22;2310;49.978;8.742;2023-05-10T03:40:33;15.00;99.90
4596;DHT22;2310;49.978;8.742;2023-05-10T03:44:34;15.00;99.90
4596;DHT22;2310;49.978;8.742;2023-05-10T03:48:36;15.20;99.90
4596;DHT22;2310;49.978;8.742;2023-05-10T03:52:37;15.00;99.90
4596;DHT22;2310;49.978;8.742;2023-05-10T03:56:40;14.90;99.90
4596;DHT22;2310;49.978;8.742;2023-05-10T04:00:41;14.80;99.90
4596;DHT22;2310;49.978;8.742;2023-05-10T04:04:44;15.00;99.90
4596;DHT22;2310;49.978;8.742;2023-05-10T04:08:45;15.10;99.90
4596;DHT22;2310;49.978;8.742;2023-05-10T04:12:46;15.30;99.90
4596;DHT22;2310;49.978;8.742;2023-05-10T04:16:47;15.30;99.90
4596;DHT22;2310;49.978;8.742;2023-05-10T04:20:49;15.20;99.90
4596;DHT22;2310;49.978;8.742;2023-05-10T04:24:50;15.30;99.90
4596;DHT22;2310;49.978;8.742;2023-05-10T04:28:51;15.40;99.90
4596;DHT22;2310;49.978;8.742;2023-05-10T04:32:52;15.20;99.90
4596;DHT22;2310;49.978;8.742;2023-05-10T04:36:53;15.30;99.90
4596;DHT22;2310;49.978;8.742;2023-05-10T04:41:05;15.20;99.90
4596;DHT22;2310;49.978;8.742;2023-05-10T04:45:07;15.20;99.90
4596;DHT22;2310;49.978;8.742;2023-05-10T04:49:10;15.10;99.90
4596;DHT22;2310;49.978;8.742;2023-05-10T04:53:11;15.10;99.90
4596;DHT22;2310;49.978;8.742;2023-05-10T04:57:16;15.40;99.90
4596;DHT22;2310;49.978;8.742;2023-05-10T05:01:17;15.40;99.90
4596;DHT22;2310;49.978;8.742;2023-05-10T05:05:18;15.40;99.90
4596;DHT22;2310;49.978;8.742;2023-05-10T05:09:19;15.50;99.90
4596;DHT22;2310;49.978;8.742;2023-05-10T05:13:20;15.30;99.90
4596;DHT22;2310;49.978;8.742;2023-05-10T05:17:21;15.30;99.90
4596;DHT22;2310;49.978;8.742;2023-05-10T05:21:23;15.50;99.90
4596;DHT22;2310;49.978;8.742;2023-05-10T05:25:24;15.50;99.90
4596;DHT22;2310;49.978;8.742;2023-05-10T05:29:26;15.20;99.90
4596;DHT22;2310;49.978;8.742;2023-05-10T05:33:27;15.30;99.90
4596;DHT22;2310;49.978;8.742;2023-05-10T05:37:28;15.20;99.90
4596;DHT22;2310;49.978;8.742;2023-05-10T05:41:29;15.30;99.90
4596;DHT22;2310;49.978;8.742;2023-05-10T05:45:30;15.20;99.90
4596;DHT22;2310;49.978;8.742;2023-05-10T05:49:32;15.20;99.90
4596;DHT22;2310;49.978;8.742;2023-05-10T05:53:33;15.30;99.90
4596;DHT22;2310;49.978;8.742;2023-05-10T05:57:34;15.30;99.90
4596;DHT22;2310;49.978;8.742;2023-05-10T06:01:35;15.40;99.90
4596;DHT22;2310;49.978;8.742;2023-05-10T06:05:37;15.60;99.90
4596;DHT22;2310;49.978;8.742;2023-05-10T06:09:38;15.40;99.90
4596;DHT22;2310;49.978;8.742;2023-05-10T06:13:39;15.50;99.90
4596;DHT22;2310;49.978;8.742;2023-05-10T06:17:40;15.50;99.90
4596;DHT22;2310;49.978;8.742;2023-05-10T06:21:41;15.70;99.90
4596;DHT22;2310;49.978;8.742;2023-05-10T06:25:43;15.40;99.90
4596;DHT22;2310;49.978;8.742;2023-05-10T06:29:44;15.50;99.90
4596;DHT22;2310;49.978;8.742;2023-05-10T06:33:45;15.50;99.90
4596;DHT22;2310;49.978;8.742;2023-05-10T06:37:48;15.60;99.90
4596;DHT22;2310;49.978;8.742;2023-05-10T06:41:49;15.60;99.90
4596;DHT22;2310;49.978;8.742;2023-05-10T06:45:50;15.50;99.90
4596;DHT22;2310;49.978;8.742;2023-05-10T06:49:52;15.80;99.90
4596;DHT22;2310;49.978;8.742;2023-05-10T06:53:53;15.90;99.90
4596;DHT22;2310;49.978;8.742;2023-05-10T06:57:55;15.70;99.90
4596;DHT22;2310;49.978;8.742;2023-05-10T07:01:56;15.80;99.90
4596;DHT22;2310;49.978;8.742;2023-05-10T07:06:01;15.80;99.90
4596;DHT22;2310;49.978;8.742;2023-05-10T07:10:04;15.90;99.90
4596;DHT22;2310;49.978;8.742;2023-05-10T07:14:06;16.10;99.90
4596;DHT22;2310;49.978;8.742;2023-05-10T07:18:07;16.20;99.90
4596;DHT22;2310;49.978;8.742;2023-05-10T07:22:08;16.10;99.90
4596;DHT22;2310;49.978;8.742;2023-05-10T07:26:09;16.30;99.90
4596;DHT22;2310;49.978;8.742;2023-05-10T07:30:12;16.40;99.90
4596;DHT22;2310;49.978;8.742;2023-05-10T07:34:13;16.20;99.90
4596;DHT22;2310;49.978;8.742;2023-05-10T07:38:15;16.40;99.90
4596;DHT22;2310;49.978;8.742;2023-05-10T07:42:16;16.40;99.90
4596;DHT22;2310;49.978;8.742;2023-05-10T07:46:17;16.70;99.90
4596;DHT22;2310;49.978;8.742;2023-05-10T07:50:20;16.80;99.90
4596;DHT22;2310;49.978;8.742;2023-05-10T07:54:22;16.50;99.90
4596;DHT22;2310;49.978;8.742;2023-05-10T07:58:24;16.70;99.90
4596;DHT22;2310;49.978;8.742;2023-05-10T08:02:25;16.70;99.90
4596;DHT22;2310;49.978;8.742;2023-05-10T08:06:27;17.10;99.90
4596;DHT22;2310;49.978;8.742;2023-05-10T08:10:31;16.80;99.90
4596;DHT22;2310;49.978;8.742;2023-05-10T08:14:34;17.10;99.90
4596;DHT22;2310;49.978;8.742;2023-05-10T08:18:38;17.40;99.90
4596;DHT22;2310;49.978;8.742;2023-05-10T08:22:39;17.60;99.90
4596;DHT22;2310;49.978;8.742;2023-05-10T08:26:40;18.00;99.90
4596;DHT22;2310;49.978;8.742;2023-05-10T08:30:41;17.90;99.90
4596;DHT22;2310;49.978;8.742;2023-05-10T08:34:42;17.80;99.90
4596;DHT22;2310;49.978;8.742;2023-05-10T08:38:44;17.80;99.90
4596;DHT22;2310;49.978;8.742;2023-05-10T08:42:51;18.00;99.90
4596;DHT22;2310;49.978;8.742;2023-05-10T08:46:54;18.30;99.90
4596;DHT22;2310;49.978;8.742;2023-05-10T08:50:58;18.20;99.90
4596;DHT22;2310;49.978;8.742;2023-05-10T08:55:02;18.40;99.90
4596;DHT22;2310;49.978;8.742;2023-05-10T08:59:04;18.50;99.90
4596;DHT22;2310;49.978;8.742;2023-05-10T09:03:05;18.50;99.90
4596;DHT22;2310;49.978;8.742;2023-05-10T09:07:07;18.50;99.90
4596;DHT22;2310;49.978;8.742;2023-05-10T09:11:09;17.60;99.90
4596;DHT22;2310;49.978;8.742;2023-05-10T09:15:11;17.40;99.90
4596;DHT22;2310;49.978;8.742;2023-05-10T09:19:13;17.30;99.90
4596;DHT22;2310;49.978;8.742;2023-05-10T09:23:14;17.30;99.90
4596;DHT22;2310;49.978;8.742;2023-05-10T09:27:15;17.00;99.90
4596;DHT22;2310;49.978;8.742;2023-05-10T09:31:17;17.40;99.90
4596;DHT22;2310;49.978;8.742;2023-05-10T09:35:20;17.60;99.90
4596;DHT22;2310;49.978;8.742;2023-05-10T09:39:30;17.80;99.90
4596;DHT22;2310;49.978;8.742;2023-05-10T09:43:37;17.80;99.90
4596;DHT22;2310;49.978;8.742;2023-05-10T09:47:37;17.80;99.90
4596;DHT22;2310;49.978;8.742;2023-05-10T09:51:38;17.80;99.90
4596;DHT22;2310;49.978;8.742;2023-05-10T09:55:44;17.90;99.90
4596;DHT22;2310;49.978;8.742;2023-05-10T09:59:48;18.30;99.90
4596;DHT22;2310;49.978;8.742;2023-05-10T10:03:49;18.50;99.90
4596;DHT22;2310;49.978;8.742;2023-05-10T10:07:50;18.70;99.90
4596;DHT22;2310;49.978;8.742;2023-05-10T10:11:54;18.40;99.90
4596;DHT22;2310;49.978;8.742;2023-05-10T10:15:55;18.10;99.90
4596;DHT22;2310;49.978;8.742;2023-05-10T10:19:57;17.60;99.90
4596;DHT22;2310;49.978;8.742;2023-05-10T10:23:59;17.40;99.90
4596;DHT22;2310;49.978;8.742;2023-05-10T10:32:42;17.30;99.90
4596;DHT22;2310;49.978;8.742;2023-05-10T10:36:45;17.40;99.90
4596;DHT22;2310;49.978;8.742;2023-05-10T10:41:10;17.70;99.90
4596;DHT22;2310;49.978;8.742;2023-05-10T10:45:12;17.80;99.90
4596;DHT22;2310;49.978;8.742;2023-05-10T10:49:14;17.80;99.90
4596;DHT22;2310;49.978;8.742;2023-05-10T10:53:16;18.00;99.90
4596;DHT22;2310;49.978;8.742;2023-05-10T10:57:19;18.20;99.90
4596;DHT22;2310;49.978;8.742;2023-05-10T11:01:23;18.40;99.90
4596;DHT22;2310;49.978;8.742;2023-05-10T11:05:41;18.50;99.90
4596;DHT22;2310;49.978;8.742;2023-05-10T11:09:46;18.30;99.90
4596;DHT22;2310;49.978;8.742;2023-05-10T11:13:51;18.20;99.90
4596;DHT22;2310;49.978;8.742;2023-05-10T11:17:53;18.20;99.90
4596;DHT22;2310;49.978;8.742;2023-05-10T11:22:13;18.00;99.90
4596;DHT22;2310;49.978;8.742;2023-05-10T11:26:15;17.90;99.90
4596;DHT22;2310;49.978;8.742;2023-05-10T11:30:17;17.90;99.90
4596;DHT22;2310;49.978;8.742;2023-05-10T11:34:31;18.30;99.90
4596;DHT22;2310;49.978;8.742;2023-05-10T11:38:32;18.80;99.90
4596;DHT22;2310;49.978;8.742;2023-05-10T11:42:33;18.80;99.90
4596;DHT22;2310;49.978;8.742;2023-05-10T11:46:36;19.20;99.90
4596;DHT22;2310;49.978;8.742;2023-05-10T11:50:38;18.90;99.90
4596;DHT22;2310;49.978;8.742;2023-05-10T11:54:53;19.50;99.90
4596;DHT22;2310;49.978;8.742;2023-05-10T11:58:57;19.60;99.90
4596;DHT22;2310;49.978;8.742;2023-05-10T12:03:00;19.60;99.90
4596;DHT22;2310;49.978;8.742;2023-05-10T12:07:02;19.70;99.90
4596;DHT22;2310;49.978;8.742;2023-05-10T12:11:05;20.20;99.90
4596;DHT22;2310;49.978;8.742;2023-05-10T12:19:20;20.70;99.90
4596;DHT22;2310;49.978;8.742;2023-05-10T12:23:22;20.70;99.90
4596;DHT22;2310;49.978;8.742;2023-05-10T12:27:23;21.20;99.90
4596;DHT22;2310;49.978;8.742;2023-05-10T12:31:24;21.10;99.90
4596;DHT22;2310;49.978;8.742;2023-05-10T12:35:25;20.50;99.90
4596;DHT22;2310;49.978;8.742;2023-05-10T12:39:41;21.00;99.90
4596;DHT22;2310;49.978;8.742;2023-05-10T12:43:43;21.30;99.90
4596;DHT22;2310;49.978;8.742;2023-05-10T12:47:44;21.50;99.90
4596;DHT22;2310;49.978;8.742;2023-05-10T12:51:45;21.50;99.90
4596;DHT22;2310;49.978;8.742;2023-05-10T12:55:47;21.10;99.90
4596;DHT22;2310;49.978;8.742;2023-05-10T12:59:48;20.70;99.90
4596;DHT22;2310;49.978;8.742;2023-05-10T13:03:49;20.60;99.90
4596;DHT22;2310;49.978;8.742;2023-05-10T13:07:51;20.60;99.90
4596;DHT22;2310;49.978;8.742;2023-05-10T13:11:52;20.80;99.90
4596;DHT22;2310;49.978;8.742;2023-05-10T13:15:56;21.00;99.90
4596;DHT22;2310;49.978;8.742;2023-05-10T13:19:57;21.20;99.90
4596;DHT22;2310;49.978;8.742;2023-05-10T13:23:58;21.30;99.90
4596;DHT22;2310;49.978;8.742;2023-05-10T13:28:01;21.70;99.90
4596;DHT22;2310;49.978;8.742;2023-05-10T13:32:03;21.80;99.90
4596;DHT22;2310;49.978;8.742;2023-05-10T13:36:05;21.70;99.90
4596;DHT22;2310;49.978;8.742;2023-05-10T13:40:07;21.00;99.90
4596;DHT22;2310;49.978;8.742;2023-05-10T13:44:09;21.20;99.90
4596;DHT22;2310;49.978;8.742;2023-05-10T13:48:10;20.90;99.90
4596;DHT22;2310;49.978;8.742;2023-05-10T13:52:12;21.00;99.90
4596;DHT22;2310;49.978;8.742;2023-05-10T13:56:13;20.90;99.90
4596;DHT22;2310;49.978;8.742;2023-05-10T14:00:15;20.60;99.90
4596;DHT22;2310;49.978;8.742;2023-05-10T14:04:17;20.50;99.90
4596;DHT22;2310;49.978;8.742;2023-05-10T14:08:18;20.50;99.90
4596;DHT22;2310;49.978;8.742;2023-05-10T14:12:19;20.50;99.90
4596;DHT22;2310;49.978;8.742;2023-05-10T14:16:20;20.70;99.90
4596;DHT22;2310;49.978;8.742;2023-05-10T14:20:22;21.10;99.90
4596;DHT22;2310;49.978;8.742;2023-05-10T14:24:23;21.40;99.90
4596;DHT22;2310;49.978;8.742;2023-05-10T14:28:24;21.40;99.90
4596;DHT22;2310;49.978;8.742;2023-05-10T14:32:26;21.10;99.90
4596;DHT22;2310;49.978;8.742;2023-05-10T14:36:28;21.30;99.90
4596;DHT22;2310;49.978;8.742;2023-05-10T14:40:30;21.40;99.90
4596;DHT22;2310;49.978;8.742;2023-05-10T14:44:31;21.40;99.90
4596;DHT22;2310;49.978;8.742;2023-05-10T14:48:32;21.60;99.90
4596;DHT22;2310;49.978;8.742;2023-05-10T14:52:34;21.70;99.90
4596;DHT22;2310;49.978;8.742;2023-05-10T14:56:35;21.90;99.90
4596;DHT22;2310;49.978;8.742;2023-05-10T15:00:38;20.80;99.90
4596;DHT22;2310;49.978;8.742;2023-05-10T15:04:40;20.60;99.90
4596;DHT22;2310;49.978;8.742;2023-05-10T15:08:41;21.10;99.90
4596;DHT22;2310;49.978;8.742;2023-05-10T15:12:42;20.90;99.90
4596;DHT22;2310;49.978;8.742;2023-05-10T15:16:43;21.10;99.90
4596;DHT22;2310;49.978;8.742;2023-05-10T15:20:45;21.20;99.90
4596;DHT22;2310;49.978;8.742;2023-05-10T15:24:47;21.50;99.90
4596;DHT22;2310;49.978;8.742;2023-05-10T15:28:48;21.90;99.90
4596;DHT22;2310;49.978;8.742;2023-05-10T15:32:50;21.10;99.90
4596;DHT22;2310;49.978;8.742;2023-05-10T15:36:51;21.00;99.90
4596;DHT22;2310;49.978;8.742;2023-05-10T15:40:56;21.30;99.90
4596;DHT22;2310;49.978;8.742;2023-05-10T15:44:58;21.60;99.90
4596;DHT22;2310;49.978;8.742;2023-05-10T15:48:59;21.70;99.90
4596;DHT22;2310;49.978;8.742;2023-05-10T15:53:00;21.60;99.90
4596;DHT22;2310;49.978;8.742;2023-05-10T15:57:02;21.50;99.90
4596;DHT22;2310;49.978;8.742;2023-05-10T16:01:03;21.60;99.90
4596;DHT22;2310;49.978;8.742;2023-05-10T16:05:06;21.30;99.90
4596;DHT22;2310;49.978;8.742;2023-05-10T16:09:07;21.00;99.90
4596;DHT22;2310;49.978;8.742;2023-05-10T16:13:08;20.90;99.90
4596;DHT22;2310;49.978;8.742;2023-05-10T16:17:09;20.80;99.90
4596;DHT22;2310;49.978;8.742;2023-05-10T16:21:11;20.70;99.90
4596;DHT22;2310;49.978;8.742;2023-05-10T16:25:13;20.80;99.90
4596;DHT22;2310;49.978;8.742;2023-05-10T16:29:14;20.60;99.90
4596;DHT22;2310;49.978;8.742;2023-05-10T16:33:15;20.50;99.90
4596;DHT22;2310;49.978;8.742;2023-05-10T16:37:17;20.30;99.90
4596;DHT22;2310;49.978;8.742;2023-05-10T16:41:18;20.10;99.90
4596;DHT22;2310;49.978;8.742;2023-05-10T16:45:19;19.70;99.90
4596;DHT22;2310;49.978;8.742;2023-05-10T16:49:20;19.50;99.90
4596;DHT22;2310;49.978;8.742;2023-05-10T16:53:22;19.60;99.90
4596;DHT22;2310;49.978;8.742;2023-05-10T16:57:23;19.60;99.90
4596;DHT22;2310;49.978;8.742;2023-05-10T17:01:25;19.60;99.90
4596;DHT22;2310;49.978;8.742;2023-05-10T17:05:28;19.40;99.90
4596;DHT22;2310;49.978;8.742;2023-05-10T17:09:29;19.40;99.90
4596;DHT22;2310;49.978;8.742;2023-05-10T17:13:30;19.00;99.90
4596;DHT22;2310;49.978;8.742;2023-05-10T17:17:32;19.40;99.90
4596;DHT22;2310;49.978;8.742;2023-05-10T17:21:33;19.10;99.90
4596;DHT22;2310;49.978;8.742;2023-05-10T17:25:34;19.00;99.90
4596;DHT22;2310;49.978;8.742;2023-05-10T17:29:36;19.10;99.90
4596;DHT22;2310;49.978;8.742;2023-05-10T17:33:37;19.30;99.90
4596;DHT22;2310;49.978;8.742;2023-05-10T17:37:38;19.10;99.90
4596;DHT22;2310;49.978;8.742;2023-05-10T17:41:39;19.20;99.90
4596;DHT22;2310;49.978;8.742;2023-05-10T17:45:41;19.30;99.90
4596;DHT22;2310;49.978;8.742;2023-05-10T17:49:42;19.40;99.90
4596;DHT22;2310;49.978;8.742;2023-05-10T17:53:44;19.60;99.90
4596;DHT22;2310;49.978;8.742;2023-05-10T17:57:46;18.90;99.90
4596;DHT22;2310;49.978;8.742;2023-05-10T18:01:49;18.50;99.90
4596;DHT22;2310;49.978;8.742;2023-05-10T18:05:50;18.20;99.90
4596;DHT22;2310;49.978;8.742;2023-05-10T18:09:53;18.10;99.90
4596;DHT22;2310;49.978;8.742;2023-05-10T18:13:54;18.10;99.90
4596;DHT22;2310;49.978;8.742;2023-05-10T18:17:56;18.00;99.90
4596;DHT22;2310;49.978;8.742;2023-05-10T18:21:57;17.90;99.90
4596;DHT22;2310;49.978;8.742;2023-05-10T18:25:58;17.70;99.90
4596;DHT22;2310;49.978;8.742;2023-05-10T18:29:59;17.80;99.90
4596;DHT22;2310;49.978;8.742;2023-05-10T18:34:00;18.00;99.90
4596;DHT22;2310;49.978;8.742;2023-05-10T18:38:02;18.10;99.90
4596;DHT22;2310;49.978;8.742;2023-05-10T18:42:04;18.10;99.90
4596;DHT22;2310;49.978;8.742;2023-05-10T18:46:05;18.00;99.90
4596;DHT22;2310;49.978;8.742;2023-05-10T18:50:07;17.90;99.90
4596;DHT22;2310;49.978;8.742;2023-05-10T18:54:10;17.80;99.90
4596;DHT22;2310;49.978;8.742;2023-05-10T18:58:11;17.70;99.90
4596;DHT22;2310;49.978;8.742;2023-05-10T19:02:12;17.50;99.90
4596;DHT22;2310;49.978;8.742;2023-05-10T19:06:14;17.30;99.90
4596;DHT22;2310;49.978;8.742;2023-05-10T19:10:16;17.30;99.90
4596;DHT22;2310;49.978;8.742;2023-05-10T19:14:17;17.30;99.90
4596;DHT22;2310;49.978;8.742;2023-05-10T19:18:18;17.00;99.90
4596;DHT22;2310;49.978;8.742;2023-05-10T19:22:22;17.00;99.90
4596;DHT22;2310;49.978;8.742;2023-05-10T19:26:25;16.90;99.90
4596;DHT22;2310;49.978;8.742;2023-05-10T19:30:26;16.80;99.90
4596;DHT22;2310;49.978;8.742;2023-05-10T19:34:28;16.70;99.90
4596;DHT22;2310;49.978;8.742;2023-05-10T19:38:29;16.60;99.90
4596;DHT22;2310;49.978;8.742;2023-05-10T19:42:31;16.60;99.90
4596;DHT22;2310;49.978;8.742;2023-05-10T19:46:32;16.50;99.90
4596;DHT22;2310;49.978;8.742;2023-05-10T19:50:33;16.40;99.90
4596;DHT22;2310;49.978;8.742;2023-05-10T19:54:34;16.30;99.90
4596;DHT22;2310;49.978;8.742;2023-05-10T19:58:36;16.10;99.90
4596;DHT22;2310;49.978;8.742;2023-05-10T20:02:37;15.90;99.90
4596;DHT22;2310;49.978;8.742;2023-05-10T20:06:38;15.80;99.90
4596;DHT22;2310;49.978;8.742;2023-05-10T20:10:40;15.70;99.90
4596;DHT22;2310;49.978;8.742;2023-05-10T20:14:41;15.80;99.90
4596;DHT22;2310;49.978;8.742;2023-05-10T20:18:42;15.70;99.90
4596;DHT22;2310;49.978;8.742;2023-05-10T20:22:47;15.70;99.90
4596;DHT22;2310;49.978;8.742;2023-05-10T20:26:48;15.70;99.90
4596;DHT22;2310;49.978;8.742;2023-05-10T20:30:51;15.70;99.90
4596;DHT22;2310;49.978;8.742;2023-05-10T20:34:54;15.60;99.90
4596;DHT22;2310;49.978;8.742;2023-05-10T20:38:55;15.70;99.90
4596;DHT22;2310;49.978;8.742;2023-05-10T20:42:56;15.70;99.90
4596;DHT22;2310;49.978;8.742;2023-05-10T20:46:58;15.50;99.90
4596;DHT22;2310;49.978;8.742;2023-05-10T20:51:00;15.30;99.90
4596;DHT22;2310;49.978;8.742;2023-05-10T20:55:02;15.30;99.90
4596;DHT22;2310;49.978;8.742;2023-05-10T20:59:03;15.10;99.90
4596;DHT22;2310;49.978;8.742;2023-05-10T21:03:04;15.10;99.90
4596;DHT22;2310;49.978;8.742;2023-05-10T21:07:06;14.80;99.90
4596;DHT22;2310;49.978;8.742;2023-05-10T21:11:07;15.20;99.90
4596;DHT22;2310;49.978;8.742;2023-05-10T21:15:09;15.30;99.90
4596;DHT22;2310;49.978;8.742;2023-05-10T21:19:10;15.20;99.90
4596;DHT22;2310;49.978;8.742;2023-05-10T21:23:12;15.40;99.90
4596;DHT22;2310;49.978;8.742;2023-05-10T21:27:13;15.40;99.90
4596;DHT22;2310;49.978;8.742;2023-05-10T21:31:14;15.20;99.90
4596;DHT22;2310;49.978;8.742;2023-05-10T21:35:16;15.20;99.90
4596;DHT22;2310;49.978;8.742;2023-05-10T21:39:17;15.20;99.90
4596;DHT22;2310;49.978;8.742;2023-05-10T21:43:18;15.40;99.90
4596;DHT22;2310;49.978;8.742;2023-05-10T21:47:20;15.40;99.90
4596;DHT22;2310;49.978;8.742;2023-05-10T21:51:21;15.40;99.90
4596;DHT22;2310;49.978;8.742;2023-05-10T21:55:23;15.30;99.90
4596;DHT22;2310;49.978;8.742;2023-05-10T21:59:24;15.30;99.90
4596;DHT22;2310;49.978;8.742;2023-05-10T22:03:25;15.30;99.90
4596;DHT22;2310;49.978;8.742;2023-05-10T22:07:27;15.20;99.90
4596;DHT22;2310;49.978;8.742;2023-05-10T22:11:28;15.30;99.90
4596;DHT22;2310;49.978;8.742;2023-05-10T22:15:29;15.20;99.90
4596;DHT22;2310;49.978;8.742;2023-05-10T22:19:33;15.30;99.90
4596;DHT22;2310;49.978;8.742;2023-05-10T22:23:34;15.30;99.90
4596;DHT22;2310;49.978;8.742;2023-05-10T22:27:36;15.20;99.90
4596;DHT22;2310;49.978;8.742;2023-05-10T22:31:37;14.90;99.90
4596;DHT22;2310;49.978;8.742;2023-05-10T22:35:39;15.00;99.90
4596;DHT22;2310;49.978;8.742;2023-05-10T22:39:40;14.90;99.90
4596;DHT22;2310;49.978;8.742;2023-05-10T22:43:41;14.90;99.90
4596;DHT22;2310;49.978;8.742;2023-05-10T22:47:42;14.60;99.90
4596;DHT22;2310;49.978;8.742;2023-05-10T22:51:44;14.40;99.90
4596;DHT22;2310;49.978;8.742;2023-05-10T22:55:45;14.20;99.90
4596;DHT22;2310;49.978;8.742;2023-05-10T22:59:47;14.20;99.90
4596;DHT22;2310;49.978;8.742;2023-05-10T23:03:49;13.80;99.90
4596;DHT22;2310;49.978;8.742;2023-05-10T23:07:50;14.00;99.90
4596;DHT22;2310;49.978;8.742;2023-05-10T23:11:53;14.20;99.90
4596;DHT22;2310;49.978;8.742;2023-05-10T23:15:54;14.30;99.90
4596;DHT22;2310;49.978;8.742;2023-05-10T23:19:55;14.20;99.90
4596;DHT22;2310;49.978;8.742;2023-05-10T23:23:57;14.10;99.90
4596;DHT22;2310;49.978;8.742;2023-05-10T23:27:58;14.10;99.90
4596;DHT22;2310;49.978;8.742;2023-05-10T23:31:59;14.10;99.90
4596;DHT22;2310;49.978;8.742;2023-05-10T23:36:01;14.10;99.90
4596;DHT22;2310;49.978;8.742;2023-05-10T23:40:02;14.10;99.90
4596;DHT22;2310;49.978;8.742;2023-05-10T23:44:04;13.80;99.90
4596;DHT22;2310;49.978;8.742;2023-05-10T23:48:05;14.00;99.90
4596;DHT22;2310;49.978;8.742;2023-05-10T23:52:07;14.00;99.90
4596;DHT22;2310;49.978;8.742;2023-05-10T23:56:08;14.00;99.90
